createdAt,value
2018-06-16T00:00:00.166Z,45.07
2018-06-16T00:01:00.228Z,45.16
2018-06-16T00:02:00.388Z,45.36
2018-06-16T00:03:00.555Z,44.42
2018-06-16T00:04:00.720Z,44.01
2018-06-16T00:05:00.886Z,42.96
2018-06-16T00:06:01.056Z,41.90
2018-06-16T00:07:01.265Z,42.29
2018-06-16T00:08:01.395Z,42.19
2018-06-16T00:09:01.556Z,42.57
2018-06-16T00:13:52.550Z,41.71
2018-06-16T00:14:52.336Z,41.90
2018-06-16T00:15:52.533Z,41.71
2018-06-16T00:16:52.671Z,41.33
2018-06-16T00:17:52.838Z,41.71
2018-06-16T00:18:53.007Z,40.94
2018-06-16T00:19:53.184Z,40.27
2018-06-16T00:20:53.352Z,40.56
2018-06-16T00:21:53.532Z,40.47
2018-06-16T00:22:53.687Z,40.06
2018-06-16T00:23:53.860Z,39.31
2018-06-16T00:24:54.023Z,39.50
2018-06-16T00:25:54.191Z,39.48
2018-06-16T00:26:54.357Z,40.25
2018-06-16T00:27:54.526Z,40.73
2018-06-16T00:30:37.092Z,40.16
2018-06-16T00:31:37.257Z,39.10
2018-06-16T00:32:37.421Z,38.53
2018-06-16T00:33:37.583Z,39.10
2018-06-16T00:34:37.748Z,38.72
2018-06-16T00:35:37.917Z,38.43
2018-06-16T00:36:38.083Z,37.09
2018-06-16T00:37:38.248Z,36.61
2018-06-16T00:38:38.427Z,37.18
2018-06-16T00:39:38.584Z,36.04
2018-06-16T00:40:38.758Z,36.42
2018-06-16T00:41:38.932Z,36.32
2018-06-16T00:42:39.103Z,37.38
2018-06-16T00:43:39.271Z,37.28
2018-06-16T00:44:39.445Z,38.43
2018-06-16T00:49:50.057Z,37.38
2018-06-16T00:50:50.223Z,36.22
2018-06-16T00:51:50.396Z,36.04
2018-06-16T00:52:50.580Z,36.04
2018-06-16T00:53:50.732Z,36.32
2018-06-16T00:54:50.894Z,36.13
2018-06-16T00:55:51.059Z,35.46
2018-06-16T00:56:51.227Z,36.04
2018-06-16T00:57:51.423Z,35.94
2018-06-16T00:58:51.564Z,35.75
2018-06-16T00:59:51.732Z,36.90
2018-06-16T01:00:51.897Z,36.80
2018-06-16T01:01:52.074Z,36.71
2018-06-16T01:02:52.250Z,37.57
2018-06-16T01:03:52.414Z,38.43
2018-06-16T01:06:34.713Z,37.28
2018-06-16T01:07:34.874Z,37.09
2018-06-16T01:08:35.041Z,36.32
2018-06-16T01:09:35.228Z,35.65
2018-06-16T01:10:35.372Z,35.55
2018-06-16T01:11:35.540Z,35.17
2018-06-16T01:12:35.712Z,35.75
2018-06-16T01:13:35.880Z,36.13
2018-06-16T01:14:36.045Z,35.36
2018-06-16T01:15:36.210Z,35.94
2018-06-16T01:16:36.376Z,35.94
2018-06-16T01:17:36.539Z,36.32
2018-06-16T01:18:36.717Z,36.13
2018-06-16T01:19:36.863Z,35.17
2018-06-16T01:20:37.033Z,35.73
2018-06-16T01:23:09.307Z,35.16
2018-06-16T01:24:09.470Z,35.25
2018-06-16T01:25:09.638Z,35.53
2018-06-16T01:26:09.808Z,36.02
2018-06-16T01:27:09.980Z,36.02
2018-06-16T01:28:10.151Z,36.02
2018-06-16T01:29:10.308Z,36.02
2018-06-16T01:30:11.336Z,36.11
2018-06-16T01:31:10.612Z,36.30
2018-06-16T01:32:10.798Z,36.21
2018-06-16T01:33:10.970Z,36.21
2018-06-16T01:34:11.134Z,36.79
2018-06-16T01:35:11.299Z,36.59
2018-06-16T01:36:11.464Z,36.30
2018-06-16T01:37:11.627Z,36.30
2018-06-16T01:39:43.906Z,34.00
2018-06-16T01:40:44.070Z,33.81
2018-06-16T01:41:44.239Z,34.39
2018-06-16T01:42:44.397Z,34.48
2018-06-16T01:43:44.581Z,33.33
2018-06-16T01:44:44.742Z,33.62
2018-06-16T01:45:44.908Z,33.24
2018-06-16T01:46:45.071Z,32.76
2018-06-16T01:47:45.240Z,31.23
2018-06-16T01:48:45.411Z,30.36
2018-06-16T01:51:17.689Z,30.18
2018-06-16T01:52:17.860Z,30.27
2018-06-16T01:53:18.028Z,30.84
2018-06-16T01:54:18.200Z,31.51
2018-06-16T01:55:18.364Z,32.57
2018-06-16T01:56:18.522Z,32.76
2018-06-16T01:57:18.696Z,33.04
2018-06-16T01:58:18.861Z,32.67
2018-06-16T01:59:19.031Z,31.61
2018-06-16T02:00:19.204Z,32.38
2018-06-16T02:01:19.371Z,32.67
2018-06-16T02:02:19.533Z,32.76
2018-06-16T02:03:19.701Z,31.61
2018-06-16T02:04:19.856Z,32.28
2018-06-16T02:05:20.023Z,32.86
2018-06-16T02:07:52.370Z,34.50
2018-06-16T02:08:52.398Z,34.39
2018-06-16T02:09:52.569Z,34.98
2018-06-16T02:10:52.751Z,34.48
2018-06-16T02:11:52.893Z,34.22
2018-06-16T02:12:53.068Z,34.29
2018-06-16T02:13:53.232Z,34.59
2018-06-16T02:14:53.400Z,34.87
2018-06-16T02:15:53.560Z,34.87
2018-06-16T02:16:53.741Z,34.77
2018-06-16T02:17:53.896Z,34.39
2018-06-16T02:18:54.063Z,34.58
2018-06-16T02:19:54.229Z,34.77
2018-06-16T02:20:54.396Z,35.06
2018-06-16T02:21:54.566Z,36.69
2018-06-16T02:24:37.142Z,36.13
2018-06-16T02:25:37.300Z,37.38
2018-06-16T02:26:37.465Z,37.55
2018-06-16T02:27:37.632Z,37.55
2018-06-16T02:28:37.806Z,37.66
2018-06-16T02:29:37.969Z,37.57
2018-06-16T02:30:38.135Z,36.02
2018-06-16T02:31:38.315Z,34.29
2018-06-16T02:32:38.471Z,33.24
2018-06-16T02:33:38.634Z,32.95
2018-06-16T02:34:38.815Z,33.14
2018-06-16T02:35:39.001Z,33.53
2018-06-16T02:36:39.167Z,32.28
2018-06-16T02:37:39.332Z,32.09
2018-06-16T02:38:39.503Z,31.51
2018-06-16T02:41:21.770Z,31.61
2018-06-16T02:42:21.938Z,31.71
2018-06-16T02:43:22.105Z,32.86
2018-06-16T02:44:22.269Z,32.95
2018-06-16T02:45:22.437Z,32.95
2018-06-16T02:46:22.600Z,32.18
2018-06-16T02:47:22.770Z,31.61
2018-06-16T02:48:22.933Z,32.95
2018-06-16T02:49:23.105Z,33.62
2018-06-16T02:50:23.347Z,34.39
2018-06-16T02:55:14.242Z,32.76
2018-06-16T02:56:14.037Z,32.67
2018-06-16T02:57:14.200Z,32.28
2018-06-16T02:58:14.359Z,32.47
2018-06-16T02:59:14.530Z,33.04
2018-06-16T03:00:14.709Z,32.86
2018-06-16T03:01:14.858Z,32.57
2018-06-16T03:02:15.024Z,32.86
2018-06-16T03:03:15.208Z,33.33
2018-06-16T03:04:15.360Z,32.76
2018-06-16T03:05:15.529Z,33.33
2018-06-16T03:06:15.694Z,34.39
2018-06-16T03:07:15.866Z,34.67
2018-06-16T03:08:16.033Z,34.20
2018-06-16T03:09:16.206Z,33.72
2018-06-16T03:12:56.790Z,33.53
2018-06-16T03:13:56.969Z,32.95
2018-06-16T03:14:59.018Z,33.14
2018-06-16T03:15:57.308Z,32.09
2018-06-16T03:16:57.475Z,32.17
2018-06-16T03:17:57.643Z,31.50
2018-06-16T03:18:57.818Z,30.83
2018-06-16T03:19:57.983Z,30.44
2018-06-16T03:20:58.138Z,29.11
2018-06-16T03:21:58.307Z,29.49
2018-06-16T03:22:58.476Z,30.73
2018-06-16T03:23:58.644Z,30.54
2018-06-16T03:24:58.811Z,30.16
2018-06-16T03:25:58.979Z,29.97
2018-06-16T03:26:59.139Z,28.91
2018-06-16T03:29:41.717Z,29.39
2018-06-16T03:30:41.884Z,28.24
2018-06-16T03:31:42.053Z,28.15
2018-06-16T03:32:44.928Z,28.72
2018-06-16T03:33:42.345Z,27.76
2018-06-16T03:34:42.511Z,28.91
2018-06-16T03:35:42.676Z,29.11
2018-06-16T03:36:42.841Z,29.39
2018-06-16T03:37:43.011Z,27.86
2018-06-16T03:38:43.172Z,28.05
2018-06-16T03:39:43.337Z,29.20
2018-06-16T03:40:43.504Z,29.11
2018-06-16T03:41:43.670Z,28.63
2018-06-16T03:42:43.847Z,29.01
2018-06-16T03:43:44.005Z,28.81
2018-06-16T03:46:16.285Z,26.62
2018-06-16T03:47:16.448Z,26.90
2018-06-16T03:48:16.616Z,27.38
2018-06-16T03:49:16.788Z,27.76
2018-06-16T03:50:16.952Z,27.86
2018-06-16T03:51:17.118Z,27.28
2018-06-16T03:52:17.286Z,26.81
2018-06-16T03:53:17.451Z,27.58
2018-06-16T03:54:17.616Z,27.86
2018-06-16T03:55:17.783Z,27.38
2018-06-16T03:56:17.952Z,27.19
2018-06-16T03:57:18.115Z,26.71
2018-06-16T03:58:18.283Z,27.18
2018-06-16T03:59:18.449Z,27.19
2018-06-16T04:00:18.618Z,26.71
2018-06-16T04:03:01.184Z,25.93
2018-06-16T04:04:01.352Z,25.74
2018-06-16T04:05:01.519Z,25.74
2018-06-16T04:06:01.681Z,26.41
2018-06-16T04:07:01.857Z,25.75
2018-06-16T04:08:02.021Z,27.84
2018-06-16T04:09:02.194Z,28.53
2018-06-16T04:10:02.354Z,28.81
2018-06-16T04:11:02.522Z,29.30
2018-06-16T04:12:02.690Z,29.97
2018-06-16T04:13:02.855Z,29.97
2018-06-16T04:14:03.022Z,29.97
2018-06-16T04:15:03.189Z,30.05
2018-06-16T04:16:03.356Z,29.09
2018-06-16T04:17:03.524Z,27.75
2018-06-16T04:19:45.797Z,27.08
2018-06-16T04:20:45.967Z,26.60
2018-06-16T04:21:46.135Z,25.65
2018-06-16T04:22:46.298Z,25.84
2018-06-16T04:23:46.467Z,25.26
2018-06-16T04:24:46.627Z,25.26
2018-06-16T04:25:46.792Z,25.55
2018-06-16T04:26:46.958Z,25.45
2018-06-16T04:27:47.129Z,24.79
2018-06-16T04:28:47.293Z,24.40
2018-06-16T04:29:47.457Z,24.69
2018-06-16T04:30:47.624Z,24.30
2018-06-16T04:31:47.798Z,24.40
2018-06-16T04:32:47.961Z,24.30
2018-06-16T04:33:48.127Z,24.88
2018-06-16T04:39:29.164Z,25.65
2018-06-16T04:40:28.843Z,25.93
2018-06-16T04:41:29.014Z,24.89
2018-06-16T04:42:29.180Z,24.51
2018-06-16T04:43:29.349Z,25.18
2018-06-16T04:44:29.513Z,27.86
2018-06-16T04:45:29.751Z,27.95
2018-06-16T04:46:29.843Z,26.81
2018-06-16T04:47:30.010Z,25.85
2018-06-16T04:48:30.176Z,26.52
2018-06-16T04:49:30.342Z,27.19
2018-06-16T04:50:30.508Z,25.56
2018-06-16T04:51:30.674Z,25.66
2018-06-16T04:52:30.841Z,25.66
2018-06-16T04:53:31.028Z,25.95
2018-06-16T04:56:13.584Z,25.18
2018-06-16T04:57:13.741Z,25.46
2018-06-16T04:58:13.906Z,25.95
2018-06-16T04:59:14.077Z,27.67
2018-06-16T05:00:14.232Z,29.41
2018-06-16T05:01:14.400Z,28.74
2018-06-16T05:02:14.564Z,27.97
2018-06-16T05:03:14.723Z,27.01
2018-06-16T05:04:14.889Z,23.66
2018-06-16T05:05:15.056Z,22.22
2018-06-16T05:06:15.230Z,21.94
2018-06-16T05:07:15.395Z,21.74
2018-06-16T05:08:15.546Z,22.32
2018-06-16T05:09:15.711Z,21.65
2018-06-16T05:10:15.876Z,23.37
2018-06-16T05:12:58.427Z,23.67
2018-06-16T05:13:58.604Z,19.16
2018-06-16T05:14:58.771Z,19.92
2018-06-16T05:15:58.932Z,19.07
2018-06-16T05:16:59.149Z,17.82
2018-06-16T05:17:59.261Z,18.20
2018-06-16T05:18:59.430Z,17.62
2018-06-16T05:19:59.595Z,15.42
2018-06-16T05:20:59.761Z,11.88
2018-06-16T05:21:59.973Z,7.18
2018-06-16T05:23:00.087Z,3.06
2018-06-16T05:24:00.264Z,0.38
2018-06-16T05:25:00.428Z,0.00
2018-06-16T05:26:00.603Z,0.00
2018-06-16T05:27:00.790Z,0.00
2018-06-16T05:29:33.030Z,0.00
2018-06-16T05:30:33.229Z,0.19
2018-06-16T05:31:33.388Z,1.82
2018-06-16T05:32:33.552Z,3.64
2018-06-16T05:33:33.713Z,5.07
2018-06-16T05:34:33.881Z,6.51
2018-06-16T05:35:34.846Z,7.57
2018-06-16T05:36:34.257Z,8.91
2018-06-16T05:37:34.478Z,9.97
2018-06-16T05:38:34.597Z,10.83
2018-06-16T05:39:34.754Z,10.35
2018-06-16T05:40:34.929Z,6.51
2018-06-16T05:41:35.096Z,6.32
2018-06-16T05:42:35.261Z,6.80
2018-06-16T05:43:35.429Z,8.05
2018-06-16T05:46:07.701Z,13.42
2018-06-16T05:47:07.873Z,11.21
2018-06-16T05:48:08.038Z,10.54
2018-06-16T05:49:08.207Z,11.30
2018-06-16T05:50:08.371Z,11.30
2018-06-16T05:51:08.538Z,12.55
2018-06-16T05:52:09.230Z,12.94
2018-06-16T05:53:08.911Z,12.85
2018-06-16T05:54:16.555Z,12.65
2018-06-16T05:55:09.184Z,11.98
2018-06-16T05:56:09.345Z,8.53
2018-06-16T05:57:09.516Z,5.46
2018-06-16T05:58:09.682Z,4.50
2018-06-16T05:59:09.849Z,3.83
2018-06-16T06:00:10.766Z,3.74
2018-06-16T06:01:11.742Z,4.02
2018-06-16T06:02:10.281Z,5.08
2018-06-16T06:03:10.449Z,6.42
2018-06-16T06:04:11.180Z,7.96
2018-06-16T06:05:10.780Z,9.97
2018-06-16T06:06:10.948Z,11.69
2018-06-16T06:07:11.116Z,13.04
2018-06-16T06:08:11.284Z,17.07
2018-06-16T06:10:53.564Z,17.83
2018-06-16T06:11:53.736Z,15.53
2018-06-16T06:12:53.897Z,11.89
2018-06-16T06:13:54.075Z,10.73
2018-06-16T06:14:55.086Z,10.16
2018-06-16T06:15:54.385Z,11.12
2018-06-16T06:16:54.547Z,12.37
2018-06-16T06:17:54.712Z,14.09
2018-06-16T06:18:54.883Z,16.11
2018-06-16T06:19:55.064Z,18.13
2018-06-16T06:20:55.224Z,19.76
2018-06-16T06:21:55.391Z,21.78
2018-06-16T06:22:55.566Z,23.41
2018-06-16T06:23:55.736Z,24.46
2018-06-16T06:24:55.897Z,25.13
2018-06-16T06:27:46.245Z,24.27
2018-06-16T06:28:38.283Z,24.08
2018-06-16T06:29:38.436Z,23.41
2018-06-16T06:30:38.618Z,24.46
2018-06-16T06:31:38.787Z,24.65
2018-06-16T06:32:38.942Z,23.88
2018-06-16T06:33:39.779Z,22.64
2018-06-16T06:34:39.262Z,23.12
2018-06-16T06:35:39.426Z,24.46
2018-06-16T06:36:39.585Z,25.61
2018-06-16T06:37:39.766Z,26.59
2018-06-16T06:38:39.927Z,27.93
2018-06-16T06:39:40.097Z,29.17
2018-06-16T06:40:40.262Z,30.52
2018-06-16T06:41:40.432Z,30.71
2018-06-16T06:44:12.706Z,32.93
2018-06-16T06:45:13.737Z,31.58
2018-06-16T06:46:13.035Z,29.08
2018-06-16T06:47:13.200Z,28.70
2018-06-16T06:48:13.386Z,29.17
2018-06-16T06:49:13.550Z,29.56
2018-06-16T06:50:13.718Z,30.82
2018-06-16T06:51:13.889Z,32.17
2018-06-16T06:52:14.071Z,31.59
2018-06-16T06:53:14.270Z,32.75
2018-06-16T06:54:14.455Z,36.01
2018-06-16T06:55:15.234Z,37.64
2018-06-16T06:56:14.814Z,38.89
2018-06-16T06:57:22.982Z,39.97
2018-06-16T06:58:15.507Z,41.02
2018-06-16T06:59:23.278Z,41.12
2018-06-16T07:00:15.448Z,41.31
2018-06-16T07:01:15.683Z,47.27
2018-06-16T07:02:16.301Z,50.54
2018-06-16T07:03:15.836Z,45.25
2018-06-16T07:04:16.019Z,47.36
2018-06-16T07:05:16.195Z,50.46
2018-06-16T07:06:16.360Z,48.25
2018-06-16T07:07:16.569Z,48.25
2018-06-16T07:08:16.734Z,48.93
2018-06-16T07:09:16.904Z,49.89
2018-06-16T07:11:59.226Z,52.00
2018-06-16T07:13:00.204Z,49.79
2018-06-16T07:13:59.494Z,50.66
2018-06-16T07:14:59.663Z,52.39
2018-06-16T07:15:59.924Z,52.29
2018-06-16T07:17:00.051Z,52.61
2018-06-16T07:18:00.274Z,54.82
2018-06-16T07:19:00.651Z,54.05
2018-06-16T07:21:32.667Z,53.16
2018-06-16T07:22:32.716Z,53.96
2018-06-16T07:23:40.074Z,54.53
2018-06-16T07:24:33.115Z,57.22
2018-06-16T07:25:33.270Z,55.49
2018-06-16T07:26:33.456Z,54.53
2018-06-16T07:27:41.061Z,55.78
2018-06-16T07:28:33.722Z,57.25
2018-06-16T07:29:33.921Z,57.92
2018-06-16T07:30:34.068Z,59.75
2018-06-16T07:31:34.237Z,60.33
2018-06-16T07:32:34.434Z,61.68
2018-06-16T07:33:34.599Z,61.58
2018-06-16T07:34:34.798Z,62.29
2018-06-16T07:35:34.964Z,65.37
2018-06-16T07:36:35.131Z,63.92
2018-06-16T07:37:35.835Z,64.37
2018-06-16T07:38:35.505Z,66.24
2018-06-16T07:39:35.704Z,66.78
2018-06-16T07:40:35.841Z,66.52
2018-06-16T07:41:36.013Z,66.91
2018-06-16T07:44:18.573Z,69.70
2018-06-16T07:45:18.755Z,69.06
2018-06-16T07:46:18.928Z,71.28
2018-06-16T07:47:19.103Z,72.91
2018-06-16T07:48:19.260Z,74.07
2018-06-16T07:49:19.524Z,73.68
2018-06-16T07:50:19.660Z,73.78
2018-06-16T07:51:27.284Z,74.58
2018-06-16T07:52:19.949Z,76.71
2018-06-16T07:53:20.140Z,77.67
2018-06-16T07:54:20.228Z,78.15
2018-06-16T07:55:28.080Z,78.83
2018-06-16T07:56:20.616Z,79.02
2018-06-16T07:57:20.800Z,79.89
2018-06-16T07:58:20.968Z,80.08
2018-06-16T07:59:21.136Z,79.98
2018-06-16T08:00:21.319Z,78.25
2018-06-16T08:01:21.479Z,77.76
2018-06-16T08:02:21.647Z,76.80
2018-06-16T08:03:21.816Z,77.76
2018-06-16T08:04:22.040Z,77.19
2018-06-16T08:05:22.196Z,79.89
2018-06-16T08:06:22.370Z,82.49
2018-06-16T08:07:22.540Z,81.72
2018-06-16T08:08:22.706Z,80.66
2018-06-16T08:09:22.895Z,78.63
2018-06-16T08:12:05.812Z,76.71
2018-06-16T08:13:05.612Z,77.96
2018-06-16T08:14:05.783Z,78.19
2018-06-16T08:15:05.946Z,80.41
2018-06-16T08:16:06.114Z,81.57
2018-06-16T08:17:06.281Z,84.07
2018-06-16T08:18:06.477Z,84.94
2018-06-16T08:19:06.641Z,86.68
2018-06-16T08:20:06.790Z,84.50
2018-06-16T08:21:06.983Z,86.24
2018-06-16T08:22:07.152Z,89.90
2018-06-16T08:23:07.323Z,87.01
2018-06-16T08:24:07.506Z,90.77
2018-06-16T08:25:07.695Z,92.65
2018-06-16T08:26:07.863Z,94.58
2018-06-16T08:28:58.684Z,95.35
2018-06-16T08:29:50.600Z,96.51
2018-06-16T08:30:50.785Z,97.57
2018-06-16T08:31:50.957Z,98.05
2018-06-16T08:32:51.142Z,99.99
2018-06-16T08:33:51.330Z,99.99
2018-06-16T08:34:51.565Z,99.99
2018-06-16T08:35:51.683Z,99.99
2018-06-16T08:36:51.857Z,99.99
2018-06-16T08:37:52.013Z,99.99
2018-06-16T08:38:53.118Z,99.74
2018-06-16T08:39:52.321Z,97.52
2018-06-16T08:40:52.492Z,97.28
2018-06-16T08:41:52.669Z,97.72
2018-06-16T08:43:00.816Z,97.72
2018-06-16T08:43:52.961Z,98.10
2018-06-16T08:44:53.176Z,97.91
2018-06-16T08:45:53.324Z,99.21
2018-06-16T08:47:01.470Z,99.99
2018-06-16T08:47:53.706Z,99.98
2018-06-16T08:49:01.105Z,99.99
2018-06-16T08:49:54.022Z,99.99
2018-06-16T08:50:54.238Z,99.99
2018-06-16T08:51:54.451Z,99.99
2018-06-16T08:52:54.608Z,99.99
2018-06-16T08:53:54.777Z,99.99
2018-06-16T08:54:54.959Z,99.99
2018-06-16T08:55:55.218Z,99.99
2018-06-16T08:56:55.528Z,99.99
2018-06-16T08:57:55.509Z,99.99
2018-06-16T08:58:56.053Z,99.99
2018-06-16T08:59:55.856Z,99.99
2018-06-16T09:00:56.094Z,99.99
2018-06-16T09:01:56.389Z,99.99
2018-06-16T09:02:56.375Z,99.99
2018-06-16T09:05:29.005Z,99.99
2018-06-16T09:06:29.173Z,99.99
2018-06-16T09:07:29.372Z,99.99
2018-06-16T09:08:29.550Z,99.99
2018-06-16T09:09:29.727Z,99.99
2018-06-16T09:10:29.892Z,99.99
2018-06-16T09:11:30.113Z,99.99
2018-06-16T09:12:30.230Z,97.28
2018-06-16T09:13:30.443Z,97.91
2018-06-16T09:14:30.510Z,98.83
2018-06-16T09:17:02.802Z,93.22
2018-06-16T09:18:02.932Z,89.97
2018-06-16T09:19:03.103Z,88.77
2018-06-16T09:20:03.277Z,86.98
2018-06-16T09:21:03.445Z,87.65
2018-06-16T09:22:05.307Z,92.58
2018-06-16T09:23:03.778Z,84.17
2018-06-16T09:24:06.803Z,82.91
2018-06-16T09:25:04.135Z,81.46
2018-06-16T09:26:04.375Z,83.98
2018-06-16T09:28:47.153Z,76.53
2018-06-16T09:29:47.072Z,75.07
2018-06-16T09:30:54.890Z,74.88
2018-06-16T09:31:47.489Z,78.56
2018-06-16T09:32:47.602Z,77.78
2018-06-16T09:33:47.772Z,80.11
2018-06-16T09:34:47.944Z,86.69
2018-06-16T09:35:48.110Z,85.33
2018-06-16T09:36:48.281Z,85.04
2018-06-16T09:37:48.456Z,84.66
2018-06-16T09:38:48.632Z,84.08
2018-06-16T09:39:48.802Z,86.49
2018-06-16T09:40:56.934Z,86.98
2018-06-16T09:41:49.101Z,85.72
2018-06-16T09:42:49.275Z,85.91
2018-06-16T09:43:50.180Z,86.49
2018-06-16T09:44:49.595Z,86.54
2018-06-16T09:45:49.764Z,88.37
2018-06-16T09:46:49.957Z,85.08
2018-06-16T09:47:50.204Z,82.66
2018-06-16T09:48:50.306Z,81.30
2018-06-16T09:49:50.510Z,81.98
2018-06-16T09:50:58.331Z,82.37
2018-06-16T09:51:50.826Z,80.73
2018-06-16T09:52:50.918Z,76.12
2018-06-16T09:53:51.140Z,68.43
2018-06-16T09:54:51.343Z,68.82
2018-06-16T09:55:51.438Z,69.69
2018-06-16T09:56:59.122Z,68.24
2018-06-16T09:57:51.860Z,70.76
2018-06-16T09:58:51.963Z,70.47
2018-06-16T09:59:53.824Z,72.24
2018-06-16T10:00:52.233Z,70.89
2018-06-16T10:01:52.423Z,69.24
2018-06-16T10:02:52.607Z,68.76
2018-06-16T10:03:52.765Z,67.53
2018-06-16T10:04:52.932Z,68.30
2018-06-16T10:05:53.102Z,67.53
2018-06-16T10:06:53.268Z,68.89
2018-06-16T10:07:53.444Z,68.30
2018-06-16T10:08:53.615Z,64.53
2018-06-16T10:09:54.785Z,64.30
2018-06-16T10:10:53.979Z,64.72
2018-06-16T10:13:27.231Z,64.11
2018-06-16T10:14:27.403Z,63.62
2018-06-16T10:15:27.638Z,64.11
2018-06-16T10:16:35.440Z,66.24
2018-06-16T10:17:27.945Z,66.78
2018-06-16T10:18:28.117Z,64.98
2018-06-16T10:19:28.279Z,62.95
2018-06-16T10:20:28.453Z,61.69
2018-06-16T10:21:28.705Z,61.49
2018-06-16T10:22:28.783Z,60.04
2018-06-16T10:23:28.952Z,59.20
2018-06-16T10:24:29.127Z,58.14
2018-06-16T10:25:29.296Z,56.39
2018-06-16T10:26:29.484Z,51.84
2018-06-16T10:29:02.811Z,50.29
2018-06-16T10:31:34.951Z,49.90
2018-06-16T10:32:35.202Z,49.34
2018-06-16T10:33:42.507Z,47.40
2018-06-16T10:34:36.096Z,47.11
2018-06-16T10:35:35.710Z,47.79
2018-06-16T10:36:35.857Z,47.89
2018-06-16T10:37:36.066Z,49.34
2018-06-16T10:38:36.234Z,50.41
2018-06-16T10:39:36.406Z,51.11
2018-06-16T10:40:36.621Z,51.31
2018-06-16T10:41:36.826Z,50.62
2018-06-16T10:42:37.008Z,48.95
2018-06-16T10:46:45.704Z,52.76
2018-06-16T10:47:44.898Z,51.21
2018-06-16T10:48:53.051Z,51.50
2018-06-16T10:49:45.223Z,51.98
2018-06-16T10:50:45.394Z,51.59
2018-06-16T10:51:46.195Z,51.33
2018-06-16T10:52:45.729Z,49.56
2018-06-16T10:53:45.948Z,49.92
2018-06-16T10:54:46.079Z,49.92
2018-06-16T10:55:54.261Z,50.21
2018-06-16T10:56:46.431Z,50.29
2018-06-16T10:57:46.636Z,52.32
2018-06-16T10:58:46.805Z,49.34
2018-06-16T10:59:46.980Z,49.54
2018-06-16T11:00:47.162Z,48.57
2018-06-16T11:01:47.333Z,47.42
2018-06-16T11:02:47.535Z,46.92
2018-06-16T11:03:47.716Z,47.23
2018-06-16T11:04:47.880Z,47.89
2018-06-16T11:05:48.084Z,48.08
2018-06-16T11:08:30.807Z,49.46
2018-06-16T11:09:30.988Z,48.78
2018-06-16T11:10:33.904Z,48.88
2018-06-16T11:11:31.909Z,47.93
2018-06-16T11:12:31.564Z,47.33
2018-06-16T11:13:31.632Z,48.76
2018-06-16T11:14:31.833Z,48.69
2018-06-16T11:15:39.136Z,49.63
2018-06-16T11:16:32.178Z,49.07
2018-06-16T11:17:33.919Z,48.30
2018-06-16T11:18:32.463Z,47.81
2018-06-16T11:19:32.634Z,48.00
2018-06-16T11:20:32.824Z,48.03
2018-06-16T11:21:32.978Z,49.68
2018-06-16T11:22:33.150Z,48.32
2018-06-16T11:23:33.336Z,48.03
2018-06-16T11:24:33.542Z,47.55
2018-06-16T11:25:33.714Z,46.67
2018-06-16T11:26:33.884Z,46.77
2018-06-16T11:27:34.061Z,46.96
2018-06-16T11:28:41.892Z,47.91
2018-06-16T11:29:34.428Z,48.20
2018-06-16T11:30:34.602Z,47.93
2018-06-16T11:31:34.771Z,48.61
2018-06-16T11:32:34.943Z,48.78
2018-06-16T11:33:35.155Z,49.66
2018-06-16T11:34:35.318Z,50.74
2018-06-16T11:35:35.489Z,48.32
2018-06-16T11:36:35.671Z,46.67
2018-06-16T11:37:35.831Z,46.31
2018-06-16T11:38:36.012Z,46.50
2018-06-16T11:39:36.952Z,45.45
2018-06-16T11:40:36.402Z,46.23
2018-06-16T11:41:36.566Z,45.17
2018-06-16T11:42:36.744Z,43.32
2018-06-16T11:45:19.297Z,43.12
2018-06-16T11:46:19.470Z,44.00
2018-06-16T11:47:20.548Z,43.34
2018-06-16T11:48:19.844Z,42.85
2018-06-16T11:49:20.017Z,43.12
2018-06-16T11:50:20.191Z,42.93
2018-06-16T11:51:20.356Z,42.91
2018-06-16T11:52:20.531Z,43.20
2018-06-16T11:53:20.704Z,43.66
2018-06-16T11:54:20.886Z,43.98
2018-06-16T11:55:21.061Z,43.10
2018-06-16T11:56:21.253Z,43.47
2018-06-16T11:57:21.430Z,44.23
2018-06-16T11:58:21.593Z,45.12
2018-06-16T11:59:21.901Z,44.83
2018-06-16T12:02:04.103Z,44.05
2018-06-16T12:03:04.306Z,43.98
2018-06-16T12:04:04.466Z,44.75
2018-06-16T12:05:04.624Z,43.98
2018-06-16T12:06:04.796Z,44.09
2018-06-16T12:07:04.963Z,43.40
2018-06-16T12:08:05.136Z,47.88
2018-06-16T12:09:05.350Z,43.80
2018-06-16T12:10:05.501Z,43.22
2018-06-16T12:11:05.696Z,43.22
2018-06-16T12:12:13.556Z,43.22
2018-06-16T12:13:05.983Z,43.61
2018-06-16T12:14:06.173Z,43.34
2018-06-16T12:15:11.073Z,43.41
2018-06-16T12:16:06.583Z,43.12
2018-06-16T12:17:06.779Z,43.32
2018-06-16T12:18:06.976Z,43.41
2018-06-16T12:19:07.178Z,43.12
2018-06-16T12:20:07.350Z,43.61
2018-06-16T12:21:07.518Z,43.02
2018-06-16T12:22:08.567Z,43.30
2018-06-16T12:23:07.916Z,43.37
2018-06-16T12:24:08.097Z,43.88
2018-06-16T12:25:08.275Z,44.05
2018-06-16T12:26:08.433Z,43.95
2018-06-16T12:28:50.732Z,44.92
2018-06-16T12:29:50.986Z,44.34
2018-06-16T12:30:51.077Z,44.83
2018-06-16T12:31:51.251Z,45.14
2018-06-16T12:32:52.246Z,44.56
2018-06-16T12:33:51.541Z,45.21
2018-06-16T12:34:51.713Z,45.31
2018-06-16T12:35:51.893Z,45.12
2018-06-16T12:36:52.065Z,44.23
2018-06-16T12:37:52.237Z,44.81
2018-06-16T12:38:52.409Z,45.39
2018-06-16T12:39:52.590Z,45.87
2018-06-16T12:41:00.780Z,45.29
2018-06-16T12:41:52.979Z,45.48
2018-06-16T12:42:53.834Z,44.44
2018-06-16T12:43:53.271Z,44.51
2018-06-16T12:44:53.448Z,44.81
2018-06-16T12:45:54.253Z,45.48
2018-06-16T12:47:00.957Z,45.29
2018-06-16T12:47:53.993Z,45.10
2018-06-16T12:48:54.165Z,45.51
2018-06-16T12:49:54.335Z,45.61
2018-06-16T12:50:54.554Z,45.12
2018-06-16T12:51:54.707Z,45.31
2018-06-16T12:52:54.880Z,45.41
2018-06-16T12:53:55.059Z,46.36
2018-06-16T12:54:55.228Z,46.86
2018-06-16T12:55:55.400Z,46.86
2018-06-16T12:56:55.622Z,46.28
2018-06-16T12:57:55.806Z,46.01
2018-06-16T12:58:55.926Z,46.11
2018-06-16T12:59:56.100Z,45.24
2018-06-16T13:01:05.211Z,45.34
2018-06-16T13:01:56.494Z,45.26
2018-06-16T13:02:56.710Z,45.55
2018-06-16T13:03:56.907Z,43.80
2018-06-16T13:04:56.972Z,43.80
2018-06-16T13:05:57.105Z,44.29
2018-06-16T13:06:57.361Z,45.17
2018-06-16T13:07:57.508Z,43.80
2018-06-16T13:08:57.665Z,44.09
2018-06-16T13:09:57.848Z,44.09
2018-06-16T13:10:58.886Z,43.80
2018-06-16T13:11:58.166Z,44.19
2018-06-16T13:12:58.349Z,44.09
2018-06-16T13:14:06.487Z,44.38
2018-06-16T13:14:58.651Z,43.82
2018-06-16T13:15:58.838Z,43.54
2018-06-16T13:16:59.000Z,42.83
2018-06-16T13:17:59.170Z,42.85
2018-06-16T13:18:59.360Z,43.12
2018-06-16T13:19:59.627Z,43.71
2018-06-16T13:21:00.368Z,43.41
2018-06-16T13:21:59.833Z,43.32
2018-06-16T13:23:08.105Z,43.41
2018-06-16T13:24:00.136Z,44.19
2018-06-16T13:25:07.864Z,43.51
2018-06-16T13:26:00.425Z,43.12
2018-06-16T13:27:00.590Z,43.61
2018-06-16T13:28:00.761Z,44.17
2018-06-16T13:29:00.935Z,43.88
2018-06-16T13:30:01.109Z,44.97
2018-06-16T13:31:01.293Z,44.56
2018-06-16T13:32:02.391Z,45.36
2018-06-16T13:33:01.691Z,45.65
2018-06-16T13:34:01.868Z,44.75
2018-06-16T13:35:02.892Z,45.12
2018-06-16T13:36:02.188Z,45.51
2018-06-16T13:37:02.366Z,45.99
2018-06-16T13:38:02.538Z,45.62
2018-06-16T13:39:10.407Z,45.43
2018-06-16T13:40:02.833Z,45.24
2018-06-16T13:42:35.443Z,45.24
2018-06-16T13:43:37.131Z,45.82
2018-06-16T13:44:35.804Z,44.95
2018-06-16T13:45:43.446Z,44.87
2018-06-16T13:46:36.109Z,44.56
2018-06-16T13:47:36.277Z,45.24
2018-06-16T13:48:36.530Z,45.61
2018-06-16T13:49:36.647Z,45.62
2018-06-16T13:50:36.825Z,45.04
2018-06-16T13:51:36.996Z,43.78
2018-06-16T13:52:37.185Z,43.40
2018-06-16T13:53:38.194Z,43.49
2018-06-16T13:54:37.526Z,43.41
2018-06-16T13:57:32.255Z,44.38
2018-06-16T13:59:39.755Z,44.00
2018-06-16T14:01:40.265Z,44.38
2018-06-16T14:02:34.765Z,44.58
2018-06-16T14:03:32.871Z,45.28
2018-06-16T14:04:24.040Z,44.19
2018-06-16T14:05:24.205Z,43.80
2018-06-16T14:06:24.379Z,44.68
2018-06-16T14:07:24.580Z,44.95
2018-06-16T14:08:24.804Z,45.80
2018-06-16T14:09:24.953Z,46.09
2018-06-16T14:10:25.119Z,46.58
2018-06-16T14:11:25.295Z,46.38
2018-06-16T14:12:25.468Z,46.77
2018-06-16T14:13:25.654Z,46.86
2018-06-16T14:14:25.843Z,46.86
2018-06-16T14:15:26.019Z,46.96
2018-06-16T14:16:26.184Z,47.35
2018-06-16T14:17:26.412Z,46.96
2018-06-16T14:18:26.460Z,47.03